sensor_id;sensor_type;location;lat;lon;timestamp;temperature;humidity
20246;DHT22;10281;54.406;18.556;2023-06-05T00:00:48;8.20;99.90
20246;DHT22;10281;54.406;18.556;2023-06-05T00:03:14;8.10;99.90
20246;DHT22;10281;54.406;18.556;2023-06-05T00:05:43;8.10;99.90
20246;DHT22;10281;54.406;18.556;2023-06-05T00:08:10;8.10;99.90
20246;DHT22;10281;54.406;18.556;2023-06-05T00:10:36;8.10;99.90
20246;DHT22;10281;54.406;18.556;2023-06-05T00:13:03;8.10;99.90
20246;DHT22;10281;54.406;18.556;2023-06-05T00:15:30;8.10;99.90
20246;DHT22;10281;54.406;18.556;2023-06-05T00:17:59;8.10;99.90
20246;DHT22;10281;54.406;18.556;2023-06-05T00:20:26;8.10;99.90
20246;DHT22;10281;54.406;18.556;2023-06-05T00:22:52;8.00;99.90
20246;DHT22;10281;54.406;18.556;2023-06-05T00:25:21;8.00;99.90
20246;DHT22;10281;54.406;18.556;2023-06-05T00:27:47;8.00;99.90
20246;DHT22;10281;54.406;18.556;2023-06-05T00:30:14;8.00;99.90
20246;DHT22;10281;54.406;18.556;2023-06-05T00:32:41;7.90;99.90
20246;DHT22;10281;54.406;18.556;2023-06-05T00:35:08;7.90;99.90
20246;DHT22;10281;54.406;18.556;2023-06-05T00:37:35;8.00;99.90
20246;DHT22;10281;54.406;18.556;2023-06-05T00:40:04;7.90;99.90
20246;DHT22;10281;54.406;18.556;2023-06-05T00:42:31;7.90;99.90
20246;DHT22;10281;54.406;18.556;2023-06-05T00:44:58;7.90;99.90
20246;DHT22;10281;54.406;18.556;2023-06-05T00:47:24;7.90;99.90
20246;DHT22;10281;54.406;18.556;2023-06-05T00:49:51;7.90;99.90
20246;DHT22;10281;54.406;18.556;2023-06-05T00:52:19;7.80;99.90
20246;DHT22;10281;54.406;18.556;2023-06-05T00:54:46;7.80;99.90
20246;DHT22;10281;54.406;18.556;2023-06-05T00:57:13;7.80;99.90
20246;DHT22;10281;54.406;18.556;2023-06-05T00:59:40;7.80;99.90
20246;DHT22;10281;54.406;18.556;2023-06-05T01:02:08;7.70;99.90
20246;DHT22;10281;54.406;18.556;2023-06-05T01:04:35;7.60;99.90
20246;DHT22;10281;54.406;18.556;2023-06-05T01:07:02;7.60;99.90
20246;DHT22;10281;54.406;18.556;2023-06-05T01:09:29;7.60;99.90
20246;DHT22;10281;54.406;18.556;2023-06-05T01:12:00;7.50;99.90
20246;DHT22;10281;54.406;18.556;2023-06-05T01:14:30;7.50;99.90
20246;DHT22;10281;54.406;18.556;2023-06-05T01:17:00;7.50;99.90
20246;DHT22;10281;54.406;18.556;2023-06-05T01:19:28;7.40;99.90
20246;DHT22;10281;54.406;18.556;2023-06-05T01:21:58;7.40;99.90
20246;DHT22;10281;54.406;18.556;2023-06-05T01:24:25;7.40;99.90
20246;DHT22;10281;54.406;18.556;2023-06-05T01:27:12;7.40;99.90
20246;DHT22;10281;54.406;18.556;2023-06-05T01:29:51;7.40;99.90
20246;DHT22;10281;54.406;18.556;2023-06-05T01:32:25;7.30;99.90
20246;DHT22;10281;54.406;18.556;2023-06-05T01:34:53;7.30;99.90
20246;DHT22;10281;54.406;18.556;2023-06-05T01:37:22;7.10;99.90
20246;DHT22;10281;54.406;18.556;2023-06-05T01:39:51;7.10;99.90
20246;DHT22;10281;54.406;18.556;2023-06-05T01:42:20;7.10;99.90
20246;DHT22;10281;54.406;18.556;2023-06-05T01:44:47;7.10;99.90
20246;DHT22;10281;54.406;18.556;2023-06-05T01:47:15;7.00;99.90
20246;DHT22;10281;54.406;18.556;2023-06-05T01:49:43;7.10;99.90
20246;DHT22;10281;54.406;18.556;2023-06-05T01:52:09;7.00;99.90
20246;DHT22;10281;54.406;18.556;2023-06-05T01:54:36;7.00;99.90
20246;DHT22;10281;54.406;18.556;2023-06-05T01:57:05;6.90;99.90
20246;DHT22;10281;54.406;18.556;2023-06-05T01:59:32;6.90;99.90
20246;DHT22;10281;54.406;18.556;2023-06-05T02:01:59;6.90;99.90
20246;DHT22;10281;54.406;18.556;2023-06-05T02:04:26;6.90;99.90
20246;DHT22;10281;54.406;18.556;2023-06-05T02:06:54;6.80;99.90
20246;DHT22;10281;54.406;18.556;2023-06-05T02:09:20;6.80;99.90
20246;DHT22;10281;54.406;18.556;2023-06-05T02:11:47;6.70;99.90
20246;DHT22;10281;54.406;18.556;2023-06-05T02:14:14;6.70;99.90
20246;DHT22;10281;54.406;18.556;2023-06-05T02:16:41;6.70;99.90
20246;DHT22;10281;54.406;18.556;2023-06-05T02:19:09;6.70;99.90
20246;DHT22;10281;54.406;18.556;2023-06-05T02:21:36;6.70;99.90
20246;DHT22;10281;54.406;18.556;2023-06-05T02:24:04;6.60;99.90
20246;DHT22;10281;54.406;18.556;2023-06-05T02:26:30;6.70;99.90
20246;DHT22;10281;54.406;18.556;2023-06-05T02:28:58;6.70;99.90
20246;DHT22;10281;54.406;18.556;2023-06-05T02:31:25;6.70;99.90
20246;DHT22;10281;54.406;18.556;2023-06-05T02:33:54;6.70;99.90
20246;DHT22;10281;54.406;18.556;2023-06-05T02:36:22;6.70;99.90
20246;DHT22;10281;54.406;18.556;2023-06-05T02:38:51;6.70;99.90
20246;DHT22;10281;54.406;18.556;2023-06-05T02:41:19;6.80;99.90
20246;DHT22;10281;54.406;18.556;2023-06-05T02:43:47;6.90;99.90
20246;DHT22;10281;54.406;18.556;2023-06-05T02:46:14;6.90;99.90
20246;DHT22;10281;54.406;18.556;2023-06-05T02:48:40;6.90;99.90
20246;DHT22;10281;54.406;18.556;2023-06-05T02:51:07;6.90;99.90
20246;DHT22;10281;54.406;18.556;2023-06-05T02:53:35;7.00;99.90
20246;DHT22;10281;54.406;18.556;2023-06-05T02:56:02;7.00;99.90
20246;DHT22;10281;54.406;18.556;2023-06-05T02:58:29;7.00;99.90
20246;DHT22;10281;54.406;18.556;2023-06-05T03:00:57;7.00;99.90
20246;DHT22;10281;54.406;18.556;2023-06-05T03:03:26;7.00;99.90
20246;DHT22;10281;54.406;18.556;2023-06-05T03:05:53;7.10;99.90
20246;DHT22;10281;54.406;18.556;2023-06-05T03:08:20;7.10;99.90
20246;DHT22;10281;54.406;18.556;2023-06-05T03:10:46;7.20;99.90
20246;DHT22;10281;54.406;18.556;2023-06-05T03:13:14;7.30;99.90
20246;DHT22;10281;54.406;18.556;2023-06-05T03:15:40;7.30;99.90
20246;DHT22;10281;54.406;18.556;2023-06-05T03:18:08;7.30;99.90
20246;DHT22;10281;54.406;18.556;2023-06-05T03:20:34;7.40;99.90
20246;DHT22;10281;54.406;18.556;2023-06-05T03:23:02;7.40;99.90
20246;DHT22;10281;54.406;18.556;2023-06-05T03:25:28;7.40;99.90
20246;DHT22;10281;54.406;18.556;2023-06-05T03:27:55;7.50;99.90
20246;DHT22;10281;54.406;18.556;2023-06-05T03:30:22;7.50;99.90
20246;DHT22;10281;54.406;18.556;2023-06-05T03:32:48;7.60;99.90
20246;DHT22;10281;54.406;18.556;2023-06-05T03:35:15;7.70;99.90
20246;DHT22;10281;54.406;18.556;2023-06-05T03:37:43;7.80;99.90
20246;DHT22;10281;54.406;18.556;2023-06-05T03:40:11;7.80;99.90
20246;DHT22;10281;54.406;18.556;2023-06-05T03:42:38;7.90;99.90
20246;DHT22;10281;54.406;18.556;2023-06-05T03:45:05;8.00;99.90
20246;DHT22;10281;54.406;18.556;2023-06-05T03:47:32;8.10;99.90
20246;DHT22;10281;54.406;18.556;2023-06-05T03:50:00;8.10;99.90
20246;DHT22;10281;54.406;18.556;2023-06-05T03:52:28;8.20;99.90
20246;DHT22;10281;54.406;18.556;2023-06-05T03:54:55;8.30;99.90
20246;DHT22;10281;54.406;18.556;2023-06-05T03:57:22;8.30;99.90
20246;DHT22;10281;54.406;18.556;2023-06-05T03:59:48;8.40;99.90
20246;DHT22;10281;54.406;18.556;2023-06-05T04:02:15;8.60;99.90
20246;DHT22;10281;54.406;18.556;2023-06-05T04:04:41;8.70;99.90
20246;DHT22;10281;54.406;18.556;2023-06-05T04:07:08;8.70;99.90
20246;DHT22;10281;54.406;18.556;2023-06-05T04:09:35;8.80;99.90
20246;DHT22;10281;54.406;18.556;2023-06-05T04:12:01;8.90;99.90
20246;DHT22;10281;54.406;18.556;2023-06-05T04:14:29;9.00;99.90
20246;DHT22;10281;54.406;18.556;2023-06-05T04:16:55;9.10;99.90
20246;DHT22;10281;54.406;18.556;2023-06-05T04:19:22;9.20;99.90
20246;DHT22;10281;54.406;18.556;2023-06-05T04:21:49;9.30;99.90
20246;DHT22;10281;54.406;18.556;2023-06-05T04:24:17;9.50;99.90
20246;DHT22;10281;54.406;18.556;2023-06-05T04:26:43;9.60;99.90
20246;DHT22;10281;54.406;18.556;2023-06-05T04:29:11;9.70;99.90
20246;DHT22;10281;54.406;18.556;2023-06-05T04:31:42;9.80;99.90
20246;DHT22;10281;54.406;18.556;2023-06-05T04:34:09;9.90;99.90
20246;DHT22;10281;54.406;18.556;2023-06-05T04:36:37;10.10;99.90
20246;DHT22;10281;54.406;18.556;2023-06-05T04:39:04;10.20;99.90
20246;DHT22;10281;54.406;18.556;2023-06-05T04:41:33;10.30;99.90
20246;DHT22;10281;54.406;18.556;2023-06-05T04:44:01;10.40;99.90
20246;DHT22;10281;54.406;18.556;2023-06-05T04:46:28;10.60;99.90
20246;DHT22;10281;54.406;18.556;2023-06-05T04:48:56;10.80;99.90
20246;DHT22;10281;54.406;18.556;2023-06-05T04:51:24;10.90;99.90
20246;DHT22;10281;54.406;18.556;2023-06-05T04:53:50;11.10;99.90
20246;DHT22;10281;54.406;18.556;2023-06-05T04:56:19;11.20;99.90
20246;DHT22;10281;54.406;18.556;2023-06-05T04:58:47;11.40;99.90
20246;DHT22;10281;54.406;18.556;2023-06-05T05:01:16;11.50;99.90
20246;DHT22;10281;54.406;18.556;2023-06-05T05:03:43;11.70;99.90
20246;DHT22;10281;54.406;18.556;2023-06-05T05:06:10;11.90;99.90
20246;DHT22;10281;54.406;18.556;2023-06-05T05:08:37;12.00;99.90
20246;DHT22;10281;54.406;18.556;2023-06-05T05:11:04;12.20;99.90
20246;DHT22;10281;54.406;18.556;2023-06-05T05:13:31;12.40;99.90
20246;DHT22;10281;54.406;18.556;2023-06-05T05:15:57;12.50;99.90
20246;DHT22;10281;54.406;18.556;2023-06-05T05:18:24;12.70;99.90
20246;DHT22;10281;54.406;18.556;2023-06-05T05:20:51;12.80;99.90
20246;DHT22;10281;54.406;18.556;2023-06-05T05:23:19;12.90;99.90
20246;DHT22;10281;54.406;18.556;2023-06-05T05:25:46;13.10;99.90
20246;DHT22;10281;54.406;18.556;2023-06-05T05:28:14;13.20;99.90
20246;DHT22;10281;54.406;18.556;2023-06-05T05:30:40;13.40;99.90
20246;DHT22;10281;54.406;18.556;2023-06-05T05:33:07;13.50;99.90
20246;DHT22;10281;54.406;18.556;2023-06-05T05:35:34;13.70;99.90
20246;DHT22;10281;54.406;18.556;2023-06-05T05:38:00;13.80;99.90
20246;DHT22;10281;54.406;18.556;2023-06-05T05:40:27;14.00;99.90
20246;DHT22;10281;54.406;18.556;2023-06-05T05:42:54;14.10;99.90
20246;DHT22;10281;54.406;18.556;2023-06-05T05:45:20;14.30;99.90
20246;DHT22;10281;54.406;18.556;2023-06-05T05:47:47;14.60;99.90
20246;DHT22;10281;54.406;18.556;2023-06-05T05:50:13;14.70;99.90
20246;DHT22;10281;54.406;18.556;2023-06-05T05:52:40;14.90;99.90
20246;DHT22;10281;54.406;18.556;2023-06-05T05:55:09;15.00;99.90
20246;DHT22;10281;54.406;18.556;2023-06-05T05:57:35;15.20;99.90
20246;DHT22;10281;54.406;18.556;2023-06-05T06:00:03;15.30;99.90
20246;DHT22;10281;54.406;18.556;2023-06-05T06:02:35;15.40;99.90
20246;DHT22;10281;54.406;18.556;2023-06-05T06:05:02;15.60;99.90
20246;DHT22;10281;54.406;18.556;2023-06-05T06:07:29;15.70;99.90
20246;DHT22;10281;54.406;18.556;2023-06-05T06:09:56;15.80;99.90
20246;DHT22;10281;54.406;18.556;2023-06-05T06:12:23;15.90;99.90
20246;DHT22;10281;54.406;18.556;2023-06-05T06:14:49;16.00;99.90
20246;DHT22;10281;54.406;18.556;2023-06-05T06:17:16;16.10;99.90
20246;DHT22;10281;54.406;18.556;2023-06-05T06:19:44;16.20;99.90
20246;DHT22;10281;54.406;18.556;2023-06-05T06:22:13;16.30;99.90
20246;DHT22;10281;54.406;18.556;2023-06-05T06:24:42;16.30;99.90
20246;DHT22;10281;54.406;18.556;2023-06-05T06:27:09;16.40;99.90
20246;DHT22;10281;54.406;18.556;2023-06-05T06:29:45;16.50;99.90
20246;DHT22;10281;54.406;18.556;2023-06-05T06:32:07;16.50;99.90
20246;DHT22;10281;54.406;18.556;2023-06-05T06:34:33;16.60;99.90
20246;DHT22;10281;54.406;18.556;2023-06-05T06:37:00;16.60;99.90
20246;DHT22;10281;54.406;18.556;2023-06-05T06:39:27;16.60;99.90
20246;DHT22;10281;54.406;18.556;2023-06-05T06:41:54;16.70;99.90
20246;DHT22;10281;54.406;18.556;2023-06-05T06:44:23;16.70;99.90
20246;DHT22;10281;54.406;18.556;2023-06-05T06:46:50;16.60;99.90
20246;DHT22;10281;54.406;18.556;2023-06-05T06:49:16;16.70;99.90
20246;DHT22;10281;54.406;18.556;2023-06-05T06:51:43;16.70;99.90
20246;DHT22;10281;54.406;18.556;2023-06-05T06:54:09;16.70;99.90
20246;DHT22;10281;54.406;18.556;2023-06-05T06:56:36;16.70;99.90
20246;DHT22;10281;54.406;18.556;2023-06-05T06:59:12;16.70;99.90
20246;DHT22;10281;54.406;18.556;2023-06-05T07:01:44;16.80;99.90
20246;DHT22;10281;54.406;18.556;2023-06-05T07:04:13;16.80;99.90
20246;DHT22;10281;54.406;18.556;2023-06-05T07:06:43;16.90;99.90
20246;DHT22;10281;54.406;18.556;2023-06-05T07:09:10;16.90;99.90
20246;DHT22;10281;54.406;18.556;2023-06-05T07:11:37;16.90;99.90
20246;DHT22;10281;54.406;18.556;2023-06-05T07:14:04;16.90;99.90
20246;DHT22;10281;54.406;18.556;2023-06-05T07:16:31;17.00;99.90
20246;DHT22;10281;54.406;18.556;2023-06-05T07:18:58;17.00;99.90
20246;DHT22;10281;54.406;18.556;2023-06-05T07:21:24;17.00;99.90
20246;DHT22;10281;54.406;18.556;2023-06-05T07:23:53;17.10;99.90
20246;DHT22;10281;54.406;18.556;2023-06-05T07:26:20;17.10;99.90
20246;DHT22;10281;54.406;18.556;2023-06-05T07:28:47;17.10;99.90
20246;DHT22;10281;54.406;18.556;2023-06-05T07:31:15;17.10;99.90
20246;DHT22;10281;54.406;18.556;2023-06-05T07:33:43;17.10;99.90
20246;DHT22;10281;54.406;18.556;2023-06-05T07:36:10;17.20;99.90
20246;DHT22;10281;54.406;18.556;2023-06-05T07:38:37;17.30;99.90
20246;DHT22;10281;54.406;18.556;2023-06-05T07:41:05;17.40;99.90
20246;DHT22;10281;54.406;18.556;2023-06-05T07:43:32;17.30;99.90
20246;DHT22;10281;54.406;18.556;2023-06-05T07:45:59;17.30;99.90
20246;DHT22;10281;54.406;18.556;2023-06-05T07:48:26;17.30;99.90
20246;DHT22;10281;54.406;18.556;2023-06-05T07:50:52;17.30;99.90
20246;DHT22;10281;54.406;18.556;2023-06-05T07:53:19;17.30;99.90
20246;DHT22;10281;54.406;18.556;2023-06-05T07:55:47;17.40;99.90
20246;DHT22;10281;54.406;18.556;2023-06-05T07:58:14;17.40;99.90
20246;DHT22;10281;54.406;18.556;2023-06-05T08:00:41;17.40;99.90
20246;DHT22;10281;54.406;18.556;2023-06-05T08:03:09;17.50;99.90
20246;DHT22;10281;54.406;18.556;2023-06-05T08:05:36;17.40;99.90
20246;DHT22;10281;54.406;18.556;2023-06-05T08:08:02;17.40;99.90
20246;DHT22;10281;54.406;18.556;2023-06-05T08:10:29;17.40;99.90
20246;DHT22;10281;54.406;18.556;2023-06-05T08:12:55;17.50;99.90
20246;DHT22;10281;54.406;18.556;2023-06-05T08:15:22;17.50;99.90
20246;DHT22;10281;54.406;18.556;2023-06-05T08:17:49;17.40;99.90
20246;DHT22;10281;54.406;18.556;2023-06-05T08:20:16;17.50;99.90
20246;DHT22;10281;54.406;18.556;2023-06-05T08:22:42;17.60;99.90
20246;DHT22;10281;54.406;18.556;2023-06-05T08:25:09;17.60;99.90
20246;DHT22;10281;54.406;18.556;2023-06-05T08:27:35;17.70;99.90
20246;DHT22;10281;54.406;18.556;2023-06-05T08:30:02;17.70;99.90
20246;DHT22;10281;54.406;18.556;2023-06-05T08:32:29;17.60;99.90
20246;DHT22;10281;54.406;18.556;2023-06-05T08:34:56;17.60;99.90
20246;DHT22;10281;54.406;18.556;2023-06-05T08:37:23;17.60;99.90
20246;DHT22;10281;54.406;18.556;2023-06-05T08:39:50;17.60;99.90
20246;DHT22;10281;54.406;18.556;2023-06-05T08:42:16;17.70;99.90
20246;DHT22;10281;54.406;18.556;2023-06-05T08:44:46;17.70;99.90
20246;DHT22;10281;54.406;18.556;2023-06-05T08:47:15;17.70;99.90
20246;DHT22;10281;54.406;18.556;2023-06-05T08:49:42;17.70;99.90
20246;DHT22;10281;54.406;18.556;2023-06-05T08:52:09;17.80;99.90
20246;DHT22;10281;54.406;18.556;2023-06-05T08:54:38;17.80;99.90
20246;DHT22;10281;54.406;18.556;2023-06-05T08:57:07;17.80;99.90
20246;DHT22;10281;54.406;18.556;2023-06-05T08:59:35;17.80;99.90
20246;DHT22;10281;54.406;18.556;2023-06-05T09:02:02;17.80;99.90
20246;DHT22;10281;54.406;18.556;2023-06-05T09:04:29;17.80;99.90
20246;DHT22;10281;54.406;18.556;2023-06-05T09:06:57;17.80;99.90
20246;DHT22;10281;54.406;18.556;2023-06-05T09:09:25;17.70;99.90
20246;DHT22;10281;54.406;18.556;2023-06-05T09:12:04;17.70;99.90
20246;DHT22;10281;54.406;18.556;2023-06-05T09:14:32;17.70;99.90
20246;DHT22;10281;54.406;18.556;2023-06-05T09:17:00;17.80;99.90
20246;DHT22;10281;54.406;18.556;2023-06-05T09:19:35;17.90;99.90
20246;DHT22;10281;54.406;18.556;2023-06-05T09:22:02;17.80;99.90
20246;DHT22;10281;54.406;18.556;2023-06-05T09:24:29;17.90;98.20
20246;DHT22;10281;54.406;18.556;2023-06-05T09:27:06;17.90;99.60
20246;DHT22;10281;54.406;18.556;2023-06-05T09:29:36;18.00;99.20
20246;DHT22;10281;54.406;18.556;2023-06-05T09:32:08;18.00;98.00
20246;DHT22;10281;54.406;18.556;2023-06-05T09:34:35;18.10;98.70
20246;DHT22;10281;54.406;18.556;2023-06-05T09:37:04;18.20;95.90
20246;DHT22;10281;54.406;18.556;2023-06-05T09:39:34;18.20;97.30
20246;DHT22;10281;54.406;18.556;2023-06-05T09:42:01;18.20;97.40
20246;DHT22;10281;54.406;18.556;2023-06-05T09:44:29;18.30;96.50
20246;DHT22;10281;54.406;18.556;2023-06-05T09:47:00;18.30;96.80
20246;DHT22;10281;54.406;18.556;2023-06-05T09:49:30;18.30;93.90
20246;DHT22;10281;54.406;18.556;2023-06-05T09:52:04;18.30;94.90
20246;DHT22;10281;54.406;18.556;2023-06-05T09:54:36;18.30;94.90
20246;DHT22;10281;54.406;18.556;2023-06-05T09:57:05;18.40;95.40
20246;DHT22;10281;54.406;18.556;2023-06-05T09:59:34;18.50;94.70
20246;DHT22;10281;54.406;18.556;2023-06-05T10:02:04;18.50;94.50
20246;DHT22;10281;54.406;18.556;2023-06-05T10:04:51;18.50;92.40
20246;DHT22;10281;54.406;18.556;2023-06-05T10:07:19;18.50;93.80
20246;DHT22;10281;54.406;18.556;2023-06-05T10:09:49;18.60;90.70
20246;DHT22;10281;54.406;18.556;2023-06-05T10:12:16;18.50;91.10
20246;DHT22;10281;54.406;18.556;2023-06-05T10:14:43;18.40;91.30
20246;DHT22;10281;54.406;18.556;2023-06-05T10:17:11;18.40;92.50
20246;DHT22;10281;54.406;18.556;2023-06-05T10:19:43;18.40;90.10
20246;DHT22;10281;54.406;18.556;2023-06-05T10:22:10;18.40;92.10
20246;DHT22;10281;54.406;18.556;2023-06-05T10:24:46;18.40;92.30
20246;DHT22;10281;54.406;18.556;2023-06-05T10:27:19;18.40;93.30
20246;DHT22;10281;54.406;18.556;2023-06-05T10:32:44;18.40;88.80
20246;DHT22;10281;54.406;18.556;2023-06-05T10:35:42;18.40;90.90
20246;DHT22;10281;54.406;18.556;2023-06-05T10:38:18;18.50;90.40
20246;DHT22;10281;54.406;18.556;2023-06-05T10:40:55;18.60;90.60
20246;DHT22;10281;54.406;18.556;2023-06-05T10:43:31;18.60;90.70
20246;DHT22;10281;54.406;18.556;2023-06-05T10:46:02;18.70;90.10
20246;DHT22;10281;54.406;18.556;2023-06-05T10:53:46;18.80;87.20
20246;DHT22;10281;54.406;18.556;2023-06-05T10:59:13;18.70;90.50
20246;DHT22;10281;54.406;18.556;2023-06-05T11:01:40;18.70;88.60
20246;DHT22;10281;54.406;18.556;2023-06-05T11:04:07;18.70;89.50
20246;DHT22;10281;54.406;18.556;2023-06-05T11:06:33;18.80;87.10
20246;DHT22;10281;54.406;18.556;2023-06-05T11:09:11;18.80;86.50
20246;DHT22;10281;54.406;18.556;2023-06-05T11:14:18;18.90;87.30
20246;DHT22;10281;54.406;18.556;2023-06-05T11:16:45;18.90;87.80
20246;DHT22;10281;54.406;18.556;2023-06-05T11:19:34;18.90;88.20
20246;DHT22;10281;54.406;18.556;2023-06-05T11:22:06;18.80;84.10
20246;DHT22;10281;54.406;18.556;2023-06-05T11:24:35;18.80;85.10
20246;DHT22;10281;54.406;18.556;2023-06-05T11:27:04;18.80;85.80
20246;DHT22;10281;54.406;18.556;2023-06-05T11:29:32;18.70;83.30
20246;DHT22;10281;54.406;18.556;2023-06-05T11:31:59;18.80;81.20
20246;DHT22;10281;54.406;18.556;2023-06-05T11:34:26;18.80;80.50
20246;DHT22;10281;54.406;18.556;2023-06-05T11:36:55;18.80;78.90
20246;DHT22;10281;54.406;18.556;2023-06-05T11:39:23;18.80;72.80
20246;DHT22;10281;54.406;18.556;2023-06-05T11:41:52;18.90;81.00
20246;DHT22;10281;54.406;18.556;2023-06-05T11:44:29;18.90;78.90
20246;DHT22;10281;54.406;18.556;2023-06-05T11:46:58;19.00;75.70
20246;DHT22;10281;54.406;18.556;2023-06-05T11:49:27;19.00;77.80
20246;DHT22;10281;54.406;18.556;2023-06-05T11:51:54;19.00;76.50
20246;DHT22;10281;54.406;18.556;2023-06-05T11:54:29;19.00;79.00
20246;DHT22;10281;54.406;18.556;2023-06-05T11:56:57;19.00;78.80
20246;DHT22;10281;54.406;18.556;2023-06-05T11:59:25;18.90;78.90
20246;DHT22;10281;54.406;18.556;2023-06-05T12:01:52;18.90;84.50
20246;DHT22;10281;54.406;18.556;2023-06-05T12:04:20;19.00;79.10
20246;DHT22;10281;54.406;18.556;2023-06-05T12:06:48;19.00;80.90
20246;DHT22;10281;54.406;18.556;2023-06-05T12:09:15;19.10;80.10
20246;DHT22;10281;54.406;18.556;2023-06-05T12:11:43;19.10;81.90
20246;DHT22;10281;54.406;18.556;2023-06-05T12:14:11;19.10;83.20
20246;DHT22;10281;54.406;18.556;2023-06-05T12:16:40;19.10;80.50
20246;DHT22;10281;54.406;18.556;2023-06-05T12:19:13;19.20;77.90
20246;DHT22;10281;54.406;18.556;2023-06-05T12:21:41;19.20;77.40
20246;DHT22;10281;54.406;18.556;2023-06-05T12:24:08;19.20;77.90
20246;DHT22;10281;54.406;18.556;2023-06-05T12:26:47;19.20;73.50
20246;DHT22;10281;54.406;18.556;2023-06-05T12:29:16;19.20;78.20
20246;DHT22;10281;54.406;18.556;2023-06-05T12:31:42;19.30;79.30
20246;DHT22;10281;54.406;18.556;2023-06-05T12:34:09;19.30;78.60
20246;DHT22;10281;54.406;18.556;2023-06-05T12:36:39;19.30;78.60
20246;DHT22;10281;54.406;18.556;2023-06-05T12:39:08;19.30;77.10
20246;DHT22;10281;54.406;18.556;2023-06-05T12:41:36;19.30;76.60
20246;DHT22;10281;54.406;18.556;2023-06-05T12:44:03;19.30;80.30
20246;DHT22;10281;54.406;18.556;2023-06-05T12:46:32;19.30;81.20
20246;DHT22;10281;54.406;18.556;2023-06-05T12:49:00;19.40;81.40
20246;DHT22;10281;54.406;18.556;2023-06-05T12:51:27;19.40;80.10
20246;DHT22;10281;54.406;18.556;2023-06-05T12:53:55;19.40;80.00
20246;DHT22;10281;54.406;18.556;2023-06-05T12:56:23;19.40;72.80
20246;DHT22;10281;54.406;18.556;2023-06-05T12:58:56;19.30;75.50
20246;DHT22;10281;54.406;18.556;2023-06-05T13:01:24;19.30;77.40
20246;DHT22;10281;54.406;18.556;2023-06-05T13:03:51;19.40;77.90
20246;DHT22;10281;54.406;18.556;2023-06-05T13:06:18;19.40;77.90
20246;DHT22;10281;54.406;18.556;2023-06-05T13:08:45;19.30;75.80
20246;DHT22;10281;54.406;18.556;2023-06-05T13:11:13;19.20;76.90
20246;DHT22;10281;54.406;18.556;2023-06-05T13:13:40;19.20;78.00
20246;DHT22;10281;54.406;18.556;2023-06-05T13:16:06;19.20;79.70
20246;DHT22;10281;54.406;18.556;2023-06-05T13:18:35;19.30;77.50
20246;DHT22;10281;54.406;18.556;2023-06-05T13:21:05;19.20;76.90
20246;DHT22;10281;54.406;18.556;2023-06-05T13:23:32;19.20;80.30
20246;DHT22;10281;54.406;18.556;2023-06-05T13:26:00;19.10;83.30
20246;DHT22;10281;54.406;18.556;2023-06-05T13:28:27;19.10;82.40
20246;DHT22;10281;54.406;18.556;2023-06-05T13:30:54;19.20;82.20
20246;DHT22;10281;54.406;18.556;2023-06-05T13:33:22;19.20;81.10
20246;DHT22;10281;54.406;18.556;2023-06-05T13:35:51;19.20;79.00
20246;DHT22;10281;54.406;18.556;2023-06-05T13:38:20;19.10;78.00
20246;DHT22;10281;54.406;18.556;2023-06-05T13:40:48;19.20;80.30
20246;DHT22;10281;54.406;18.556;2023-06-05T13:43:17;19.20;82.60
20246;DHT22;10281;54.406;18.556;2023-06-05T13:45:45;19.20;83.80
20246;DHT22;10281;54.406;18.556;2023-06-05T13:48:11;19.10;83.70
20246;DHT22;10281;54.406;18.556;2023-06-05T13:50:38;19.20;81.00
20246;DHT22;10281;54.406;18.556;2023-06-05T13:53:05;19.00;88.30
20246;DHT22;10281;54.406;18.556;2023-06-05T13:55:31;19.00;91.70
20246;DHT22;10281;54.406;18.556;2023-06-05T13:57:58;18.90;91.40
20246;DHT22;10281;54.406;18.556;2023-06-05T14:00:28;19.00;91.60
20246;DHT22;10281;54.406;18.556;2023-06-05T14:02:55;18.90;91.20
20246;DHT22;10281;54.406;18.556;2023-06-05T14:05:22;18.80;91.30
20246;DHT22;10281;54.406;18.556;2023-06-05T14:07:51;18.80;91.40
20246;DHT22;10281;54.406;18.556;2023-06-05T14:10:20;18.80;91.00
20246;DHT22;10281;54.406;18.556;2023-06-05T14:12:47;18.80;92.10
20246;DHT22;10281;54.406;18.556;2023-06-05T14:15:14;18.80;91.60
20246;DHT22;10281;54.406;18.556;2023-06-05T14:17:46;18.70;92.30
20246;DHT22;10281;54.406;18.556;2023-06-05T14:20:12;18.80;93.00
20246;DHT22;10281;54.406;18.556;2023-06-05T14:22:40;18.80;93.80
20246;DHT22;10281;54.406;18.556;2023-06-05T14:25:08;18.70;92.70
20246;DHT22;10281;54.406;18.556;2023-06-05T14:27:36;18.60;94.30
20246;DHT22;10281;54.406;18.556;2023-06-05T14:30:03;18.60;94.30
20246;DHT22;10281;54.406;18.556;2023-06-05T14:32:30;18.60;94.20
20246;DHT22;10281;54.406;18.556;2023-06-05T14:34:57;18.60;95.10
20246;DHT22;10281;54.406;18.556;2023-06-05T14:37:23;18.60;96.20
20246;DHT22;10281;54.406;18.556;2023-06-05T14:39:50;18.60;95.80
20246;DHT22;10281;54.406;18.556;2023-06-05T14:42:17;18.60;98.10
20246;DHT22;10281;54.406;18.556;2023-06-05T14:44:43;18.60;97.30
20246;DHT22;10281;54.406;18.556;2023-06-05T14:47:10;18.50;98.00
20246;DHT22;10281;54.406;18.556;2023-06-05T14:49:38;18.50;98.40
20246;DHT22;10281;54.406;18.556;2023-06-05T14:52:04;18.50;99.50
20246;DHT22;10281;54.406;18.556;2023-06-05T14:54:31;18.40;99.10
20246;DHT22;10281;54.406;18.556;2023-06-05T14:56:58;18.40;99.00
20246;DHT22;10281;54.406;18.556;2023-06-05T14:59:24;18.40;98.50
20246;DHT22;10281;54.406;18.556;2023-06-05T15:01:51;18.40;99.00
20246;DHT22;10281;54.406;18.556;2023-06-05T15:04:18;18.30;99.60
20246;DHT22;10281;54.406;18.556;2023-06-05T15:06:44;18.20;99.70
20246;DHT22;10281;54.406;18.556;2023-06-05T15:09:11;18.30;98.90
20246;DHT22;10281;54.406;18.556;2023-06-05T15:11:37;18.30;99.00
20246;DHT22;10281;54.406;18.556;2023-06-05T15:14:04;18.30;99.90
20246;DHT22;10281;54.406;18.556;2023-06-05T15:16:30;18.20;99.90
20246;DHT22;10281;54.406;18.556;2023-06-05T15:18:57;18.20;99.90
20246;DHT22;10281;54.406;18.556;2023-06-05T15:21:24;18.10;99.90
20246;DHT22;10281;54.406;18.556;2023-06-05T15:23:51;18.20;99.90
20246;DHT22;10281;54.406;18.556;2023-06-05T15:26:17;18.20;99.90
20246;DHT22;10281;54.406;18.556;2023-06-05T15:28:44;18.20;99.90
20246;DHT22;10281;54.406;18.556;2023-06-05T15:31:11;18.10;99.90
20246;DHT22;10281;54.406;18.556;2023-06-05T15:33:38;18.10;99.90
20246;DHT22;10281;54.406;18.556;2023-06-05T15:36:05;18.10;99.90
20246;DHT22;10281;54.406;18.556;2023-06-05T15:38:32;18.00;99.90